Time;durP1;ratioP1;P1;durP2;ratioP2;P2;SDS_P1;SDS_P2;PMS_P1;PMS_P2;Temp;Humidity;BMP_temperature;BMP_pressure;BME280_temperature;BME280_humidity;BME280_pressure;Samples;Min_cycle;Max_cycle;Signal;HPM_P1;HPM_P2
2021/08/20 00:01:05;;;;;;;5.23;2.43;;;;;;;13.35;94.21;100980.31;5089182;28;20081;-70
2021/08/20 00:03:30;;;;;;;6.18;2.30;;;;;;;13.35;94.17;100973.09;5087148;28;20069;-70
2021/08/20 00:05:58;;;;;;;7.47;2.88;;;;;;;13.35;94.57;100988.38;5088802;28;20506;-70
2021/08/20 00:08:23;;;;;;;8.27;2.63;;;;;;;13.39;94.85;100984.28;5088054;28;20040;-70
2021/08/20 00:10:49;;;;;;;6.73;2.37;;;;;;;13.41;94.99;100982.28;5086475;28;20611;-70
2021/08/20 00:13:15;;;;;;;;;;;;;;;13.37;94.39;100981.81;5089387;28;20445;-70
2021/08/20 00:15:40;;;;;;;;;;;;;;;13.37;93.89;100978.28;5089217;28;19912;-70
2021/08/20 00:18:05;;;;;;;3.73;2.17;;;;;;;13.35;93.91;100978.47;5088889;28;19916;-70
2021/08/20 00:20:31;;;;;;;5.40;2.80;;;;;;;13.35;93.61;100983.81;5081071;28;20119;-70
2021/08/20 00:22:56;;;;;;;4.50;2.03;;;;;;;13.33;93.18;100980.47;5068683;28;20056;-70
2021/08/20 00:25:22;;;;;;;4.25;2.75;;;;;;;13.37;93.65;100987.16;5068325;28;20500;-70
2021/08/20 00:27:48;;;;;;;6.03;2.20;;;;;;;13.32;93.76;100981.47;5076295;28;20020;-70
2021/08/20 00:30:13;;;;;;;7.43;2.17;;;;;;;13.35;93.74;100983.81;5086454;28;20503;-70
2021/08/20 00:32:39;;;;;;;5.20;1.80;;;;;;;13.33;93.94;100979.66;5086568;28;20031;-70
2021/08/20 00:35:05;;;;;;;5.77;2.07;;;;;;;13.28;94.11;100974.81;5086958;28;20744;-70
2021/08/20 00:37:30;;;;;;;3.72;2.45;;;;;;;13.18;94.52;100968.78;5070661;28;20036;-70
2021/08/20 00:39:57;;;;;;;3.55;2.08;;;;;;;13.15;95.12;100969.13;5085347;28;20054;-70
2021/08/20 00:42:23;;;;;;;6.03;2.10;;;;;;;13.12;95.52;100967.63;5066852;28;20457;-70
2021/08/20 00:44:49;;;;;;;5.20;2.40;;;;;;;13.09;95.43;100963.47;5067167;28;20545;-70
2021/08/20 00:47:15;;;;;;;5.63;3.25;;;;;;;13.08;95.60;100963.63;5067869;28;20120;-70
2021/08/20 00:49:40;;;;;;;8.30;2.23;;;;;;;13.17;95.44;100961.75;5050812;28;20064;-70
2021/08/20 00:52:06;;;;;;;5.00;2.17;;;;;;;13.13;95.36;100957.75;5068072;28;20551;-70
2021/08/20 00:54:31;;;;;;;7.00;2.78;;;;;;;13.09;95.52;100965.31;5067144;28;20127;-70
2021/08/20 00:56:57;;;;;;;5.75;2.17;;;;;;;13.00;95.81;100952.94;5066463;28;20032;-70
2021/08/20 00:59:26;;;;;;;5.57;1.97;;;;;;;12.95;95.70;100961.50;5067308;28;20090;-70
2021/08/20 01:01:51;;;;;;;9.25;3.03;;;;;;;12.88;95.92;100955.16;5084776;28;20477;-70
2021/08/20 01:04:17;;;;;;;3.97;2.37;;;;;;;12.78;96.46;100949.16;5087080;28;20039;-70
2021/08/20 01:06:43;;;;;;;6.75;2.10;;;;;;;12.76;96.56;100951.16;5070390;28;20286;-70
2021/08/20 01:09:10;;;;;;;6.97;2.38;;;;;;;12.77;97.00;100952.84;5087127;28;20590;-70
2021/08/20 01:11:36;;;;;;;13.68;2.33;;;;;;;12.80;96.83;100960.53;5071263;28;20041;-70
2021/08/20 01:14:03;;;;;;;4.85;2.20;;;;;;;12.71;96.88;100961.56;5066667;28;20119;-70
2021/08/20 01:16:28;;;;;;;;;;;;;;;12.66;97.05;100960.22;5068236;28;20488;-70
2021/08/20 01:18:54;;;;;;;6.28;1.90;;;;;;;12.60;96.93;100957.41;5066892;28;19955;-70
2021/08/20 01:21:21;;;;;;;4.07;1.80;;;;;;;12.56;97.27;100956.91;5080683;28;20032;-70
2021/08/20 01:23:53;;;;;;;7.35;2.75;;;;;;;12.50;97.72;100968.28;5087857;28;20495;-70
2021/08/20 01:26:21;;;;;;;3.08;2.10;;;;;;;12.46;97.77;100961.63;5084468;28;20127;-70
2021/08/20 01:28:46;;;;;;;3.55;2.20;;;;;;;12.41;98.28;100955.94;5081581;28;20047;-70
2021/08/20 01:31:14;;;;;;;4.10;1.92;;;;;;;12.39;97.91;100965.97;5084981;28;20011;-70
2021/08/20 01:33:40;;;;;;;5.10;2.70;;;;;;;12.34;98.18;100969.16;5069164;28;20051;-70
2021/08/20 01:36:08;;;;;;;7.32;2.20;;;;;;;12.37;98.25;100970.66;5085771;28;20469;-70
2021/08/20 01:38:48;;;;;;;7.25;2.33;;;;;;;12.40;98.32;100973.81;5087104;28;20449;-70
2021/08/20 01:41:13;;;;;;;7.35;2.10;;;;;;;12.43;98.47;100968.16;5079980;28;20021;-70
2021/08/20 01:43:39;;;;;;;4.70;2.30;;;;;;;12.45;98.68;100970.66;5066758;28;20123;-70
2021/08/20 01:46:04;;;;;;;4.88;2.08;;;;;;;12.43;98.82;100973.50;5069191;28;20036;-70
2021/08/20 01:48:30;;;;;;;9.53;2.37;;;;;;;12.39;98.47;100971.34;5070473;28;20091;-70
2021/08/20 01:50:55;;;;;;;4.60;2.73;;;;;;;12.30;98.06;100975.03;5073584;28;20097;-70
2021/08/20 01:53:21;;;;;;;7.27;2.47;;;;;;;12.21;98.21;100975.00;5090632;28;20090;-70
2021/08/20 01:55:46;;;;;;;7.07;2.07;;;;;;;12.15;98.54;100969.50;5073464;28;20042;-70
2021/08/20 01:58:12;;;;;;;6.55;2.20;;;;;;;12.09;98.65;100964.81;5090443;28;20055;-70
2021/08/20 02:00:39;;;;;;;8.07;2.43;;;;;;;12.05;98.58;100964.31;5089521;28;20020;-70
2021/08/20 02:03:05;;;;;;;10.10;2.67;;;;;;;12.06;98.61;100965.13;5073072;28;20046;-70
2021/08/20 02:05:32;;;;;;;5.20;2.60;;;;;;;12.04;98.56;100968.00;5090266;28;20044;-70
2021/08/20 02:08:00;;;;;;;6.72;2.47;;;;;;;12.03;98.90;100972.53;5089850;28;20028;-70
2021/08/20 02:10:26;;;;;;;7.78;2.88;;;;;;;12.01;98.95;100969.16;5088371;28;20047;-70
2021/08/20 02:12:54;;;;;;;4.95;2.10;;;;;;;11.89;98.19;100969.66;5090047;28;20368;-70
2021/08/20 02:15:25;;;;;;;3.72;2.63;;;;;;;11.88;98.55;100966.13;5090185;28;20028;-70
2021/08/20 02:17:51;;;;;;;6.40;2.03;;;;;;;11.79;98.50;100957.22;5089663;28;20032;-70
2021/08/20 02:20:17;;;;;;;5.07;2.70;;;;;;;11.78;98.96;100962.75;5078263;28;20150;-70
2021/08/20 02:22:43;;;;;;;5.07;2.35;;;;;;;11.73;99.03;100959.72;5069906;28;20398;-70
2021/08/20 02:25:10;;;;;;;5.10;1.85;;;;;;;11.70;98.92;100954.72;5069424;28;20178;-70
2021/08/20 02:27:35;;;;;;;8.77;2.50;;;;;;;11.66;98.57;100967.59;5069497;28;20484;-70
2021/08/20 02:30:01;;;;;;;7.63;2.80;;;;;;;11.67;98.63;100974.59;5062000;28;20039;-70
2021/08/20 02:32:28;;;;;;;6.30;2.53;;;;;;;11.69;98.80;100980.63;5089681;28;20032;-70
2021/08/20 02:34:53;;;;;;;11.13;2.60;;;;;;;11.73;99.21;100978.44;5089048;28;20043;-70
2021/08/20 02:37:19;;;;;;;9.27;3.55;;;;;;;11.78;99.37;100976.13;5089604;28;20024;-70
2021/08/20 02:39:45;;;;;;;6.10;3.00;;;;;;;11.86;99.88;100977.97;5083664;28;20076;-70
2021/08/20 02:42:10;;;;;;;4.43;2.53;;;;;;;11.91;100.00;100973.00;5069477;28;20036;-70
2021/08/20 02:44:36;;;;;;;11.43;2.93;;;;;;;11.95;100.00;100975.19;5069176;28;20113;-70
2021/08/20 02:47:01;;;;;;;13.77;4.03;;;;;;;11.97;100.00;100969.66;5068901;28;20029;-70
2021/08/20 02:49:28;;;;;;;5.38;2.78;;;;;;;12.04;100.00;100963.47;5070576;28;20127;-70
2021/08/20 02:51:53;;;;;;;6.00;3.37;;;;;;;12.06;100.00;100960.66;5069023;28;20123;-70
2021/08/20 02:54:23;;;;;;;12.55;3.08;;;;;;;12.10;100.00;100961.97;5069194;28;20021;-70
2021/08/20 02:56:49;;;;;;;7.47;3.33;;;;;;;12.14;100.00;100963.31;5068311;28;20367;-70
2021/08/20 02:59:18;;;;;;;7.05;2.83;;;;;;;12.17;100.00;100968.31;5071683;28;20028;-70
2021/08/20 03:01:48;;;;;;;9.30;3.80;;;;;;;12.28;100.00;100969.00;5090067;28;20028;-70
2021/08/20 03:04:15;;;;;;;5.55;3.00;;;;;;;12.31;100.00;100961.44;5089198;28;20123;-70
2021/08/20 03:06:42;;;;;;;8.98;3.33;;;;;;;12.35;100.00;100956.59;5088743;28;20118;-70
2021/08/20 03:09:17;;;;;;;10.75;3.30;;;;;;;12.39;100.00;100960.63;5087009;28;20047;-70
2021/08/20 03:11:42;;;;;;;11.07;4.10;;;;;;;12.43;100.00;100956.59;5068759;28;20037;-70
2021/08/20 03:14:08;;;;;;;6.60;3.92;;;;;;;12.48;100.00;100958.75;5068454;28;20046;-70
2021/08/20 03:16:37;;;;;;;8.30;3.13;;;;;;;12.51;100.00;100958.44;5068535;28;20021;-70
2021/08/20 03:19:05;;;;;;;8.48;3.60;;;;;;;12.54;100.00;100958.91;5068746;28;20036;-70
2021/08/20 03:21:30;;;;;;;5.47;3.10;;;;;;;12.59;100.00;100956.56;5088859;28;20046;-70
2021/08/20 03:23:56;;;;;;;9.32;3.58;;;;;;;12.61;100.00;100957.22;5088548;28;20662;-70
2021/08/20 03:26:23;;;;;;;12.10;3.63;;;;;;;12.64;100.00;100959.59;5088371;28;20024;-70
2021/08/20 03:28:52;;;;;;;12.82;3.65;;;;;;;12.62;100.00;100958.91;5088558;28;20408;-70
2021/08/20 03:31:20;;;;;;;6.90;3.50;;;;;;;12.72;100.00;100957.91;5086814;28;20568;-70
2021/08/20 03:33:46;;;;;;;;;;;;;;;12.80;100.00;100965.91;5089815;28;20083;-70
2021/08/20 03:36:16;;;;;;;9.43;3.80;;;;;;;12.87;100.00;100975.75;5071737;28;20015;-70
2021/08/20 03:38:42;;;;;;;9.85;3.83;;;;;;;12.93;100.00;100974.25;5088584;28;20524;-70
2021/08/20 03:41:08;;;;;;;8.85;3.95;;;;;;;12.97;99.98;100978.25;5088374;28;20122;-70
2021/08/20 03:43:53;;;;;;;7.38;3.95;;;;;;;13.03;99.69;100980.22;5089592;28;20059;-70
2021/08/20 03:46:22;;;;;;;6.88;3.42;;;;;;;13.09;99.62;100981.41;5087688;28;20141;-70
2021/08/20 03:48:49;;;;;;;9.70;4.00;;;;;;;13.07;99.35;100986.09;5088487;28;20543;-70
2021/08/20 03:51:15;;;;;;;10.27;3.63;;;;;;;13.08;99.46;100983.22;5088018;28;20028;-70
2021/08/20 03:53:40;;;;;;;7.27;3.60;;;;;;;13.12;99.54;100985.56;5088238;28;20131;-70
2021/08/20 03:56:06;;;;;;;11.30;3.90;;;;;;;13.14;99.70;100984.38;5087596;28;20116;-70
2021/08/20 03:58:40;;;;;;;16.38;4.28;;;;;;;13.17;99.60;100977.84;5088503;28;20035;-70
2021/08/20 04:01:09;;;;;;;19.15;5.32;;;;;;;13.20;99.72;100980.16;5071132;28;20024;-70
2021/08/20 04:03:35;;;;;;;11.32;4.45;;;;;;;13.24;99.17;100976.97;5088233;28;20043;-70
2021/08/20 04:06:08;;;;;;;8.98;3.53;;;;;;;13.28;99.13;100977.50;5087362;28;20377;-70
2021/08/20 04:08:34;;;;;;;9.70;4.07;;;;;;;13.24;99.32;100974.28;5087210;28;20074;-70
2021/08/20 04:11:02;;;;;;;10.75;5.82;;;;;;;13.25;99.47;100972.44;5073225;28;20044;-70
2021/08/20 04:13:54;;;;;;;11.40;4.28;;;;;;;13.30;99.54;100980.84;5067722;28;20040;-70
2021/08/20 04:16:20;;;;;;;15.85;4.88;;;;;;;13.30;99.51;100976.31;5067319;28;20461;-70
2021/08/20 04:18:45;;;;;;;8.20;3.95;;;;;;;13.33;99.64;100969.75;5068498;28;20112;-70
2021/08/20 04:21:12;;;;;;;12.32;4.07;;;;;;;13.38;99.42;100983.47;5050994;28;20036;-70
2021/08/20 04:23:40;;;;;;;16.15;5.47;;;;;;;13.36;99.19;100974.75;5067108;28;20114;-70
2021/08/20 04:26:11;;;;;;;11.45;5.10;;;;;;;13.39;99.16;100985.16;5067020;28;20036;-70
2021/08/20 04:28:50;;;;;;;9.82;4.10;;;;;;;13.38;99.08;100986.16;5067418;28;20036;-70
2021/08/20 04:31:34;;;;;;;15.05;4.93;;;;;;;13.43;99.57;100997.19;5087999;28;20056;-70
2021/08/20 04:34:18;;;;;;;12.30;5.40;;;;;;;13.45;99.44;100989.78;5087949;28;20117;-70
2021/08/20 04:36:59;;;;;;;12.00;4.78;;;;;;;13.55;99.04;100988.75;5072733;28;20055;-70
2021/08/20 04:39:38;;;;;;;18.70;5.47;;;;;;;13.51;99.31;100994.47;5085303;28;20525;-70
2021/08/20 04:42:15;;;;;;;19.80;6.18;;;;;;;13.55;99.09;100996.78;5087443;28;20035;-70
2021/08/20 04:44:51;;;;;;;11.67;4.90;;;;;;;13.56;99.24;100998.47;5087058;28;20032;-71
2021/08/20 04:47:35;;;;;;;16.08;5.95;;;;;;;13.62;99.12;100995.06;5088229;28;20096;-70
2021/08/20 04:50:00;;;;;;;19.60;5.93;;;;;;;13.67;98.67;100998.06;5082027;28;20032;-70
2021/08/20 04:52:41;;;;;;;16.13;5.78;;;;;;;13.73;98.21;101000.06;5078792;28;20138;-70
2021/08/20 04:55:20;;;;;;;11.43;6.32;;;;;;;13.73;98.40;100994.69;5087135;28;20043;-70
2021/08/20 04:57:46;;;;;;;9.90;5.03;;;;;;;13.73;98.59;101002.72;5087219;28;20040;-70
2021/08/20 05:00:11;;;;;;;17.50;5.73;;;;;;;13.74;98.75;101007.06;5087338;28;20047;-70
2021/08/20 05:02:37;;;;;;;15.73;5.50;;;;;;;13.72;98.43;100991.16;5087216;28;20036;-70
2021/08/20 05:05:06;;;;;;;12.20;5.33;;;;;;;13.79;98.47;101007.41;5087172;28;20262;-70
2021/08/20 05:07:36;;;;;;;15.80;5.78;;;;;;;13.79;98.42;101009.22;5087512;28;20091;-70
2021/08/20 05:10:11;;;;;;;11.65;5.20;;;;;;;13.87;98.51;101011.88;5082207;28;20044;-70
2021/08/20 05:12:39;;;;;;;11.85;5.95;;;;;;;13.83;98.85;101007.88;5066839;28;20125;-70
2021/08/20 05:15:06;;;;;;;14.07;5.60;;;;;;;13.84;98.88;101013.06;5066987;28;20047;-70
2021/08/20 05:17:31;;;;;;;11.35;5.32;;;;;;;13.89;99.10;101018.72;5066608;28;20111;-70
2021/08/20 05:19:56;;;;;;;13.13;5.67;;;;;;;13.97;98.60;101019.69;5074534;28;20115;-70
2021/08/20 05:22:22;;;;;;;14.73;7.13;;;;;;;14.03;98.06;101019.00;5091777;28;20035;-70
2021/08/20 05:24:47;;;;;;;14.63;6.93;;;;;;;14.02;98.15;101014.63;5091242;28;20119;-70
2021/08/20 05:27:12;;;;;;;9.70;5.93;;;;;;;14.05;98.11;101011.59;5091930;28;20059;-70
2021/08/20 05:29:38;;;;;;;14.40;6.33;;;;;;;14.14;97.90;101021.22;5089834;28;20028;-70
2021/08/20 05:32:03;;;;;;;14.40;6.97;;;;;;;14.20;98.18;101017.00;5070674;28;20060;-70
2021/08/20 05:34:29;;;;;;;9.38;4.93;;;;;;;14.18;97.62;101017.19;5071184;28;20097;-70
2021/08/20 05:36:54;;;;;;;19.10;6.60;;;;;;;14.17;97.52;101020.91;5071075;28;20032;-70
2021/08/20 05:39:19;;;;;;;11.63;6.13;;;;;;;14.22;97.87;101023.88;5051442;28;20044;-70
2021/08/20 05:41:45;;;;;;;16.07;6.60;;;;;;;14.38;97.78;101022.09;5069576;28;20105;-70
2021/08/20 05:44:10;;;;;;;21.87;6.40;;;;;;;14.42;96.72;101021.53;5068074;28;20036;-70
2021/08/20 05:46:36;;;;;;;15.43;6.63;;;;;;;14.45;97.00;101029.22;5067521;28;20043;-70
2021/08/20 05:49:05;;;;;;;19.20;7.93;;;;;;;14.55;96.98;101021.78;5050794;28;20112;-70
2021/08/20 05:51:30;;;;;;;15.20;6.85;;;;;;;14.73;96.90;101020.63;5084516;28;20039;-70
2021/08/20 05:53:56;;;;;;;19.43;7.80;;;;;;;14.75;96.54;101014.03;5089182;28;20386;-70
2021/08/20 05:56:21;;;;;;;17.77;7.93;;;;;;;14.74;95.30;101016.91;5090935;28;20024;-70
2021/08/20 05:58:47;;;;;;;22.07;7.10;;;;;;;14.76;96.17;101021.06;5090872;28;20377;-70
2021/08/20 06:01:14;;;;;;;16.80;8.23;;;;;;;14.71;95.60;101022.66;5076324;28;20035;-70
2021/08/20 06:03:39;;;;;;;;;;;;;;;14.85;95.98;101026.38;5054363;28;20028;-70
2021/08/20 06:06:18;;;;;;;21.52;9.27;;;;;;;14.84;95.75;101027.38;5069586;28;19927;-70
2021/08/20 06:08:43;;;;;;;22.23;7.73;;;;;;;14.74;96.14;101019.59;5070387;28;20028;-70
2021/08/20 06:11:09;;;;;;;18.73;8.77;;;;;;;14.55;95.75;101029.00;5071563;28;20691;-70
2021/08/20 06:13:34;;;;;;;19.10;8.10;;;;;;;14.62;96.67;101031.81;5070709;28;20028;-70
2021/08/20 06:16:00;;;;;;;19.00;8.37;;;;;;;14.64;96.87;101027.91;5068046;28;20032;-71
2021/08/20 06:18:26;;;;;;;13.70;8.17;;;;;;;14.70;96.01;101026.34;5068868;28;20113;-70
2021/08/20 06:20:52;;;;;;;19.30;9.45;;;;;;;14.69;95.27;101025.50;5083257;28;20093;-70
2021/08/20 06:23:17;;;;;;;24.43;8.73;;;;;;;14.67;96.22;101030.22;5088896;28;20036;-70
2021/08/20 06:25:42;;;;;;;20.93;9.13;;;;;;;14.68;96.21;101028.38;5089397;28;20076;-70
2021/08/20 06:28:07;;;;;;;20.63;9.37;;;;;;;14.80;95.84;101029.63;5088765;28;20404;-70
2021/08/20 06:30:33;;;;;;;14.73;7.53;;;;;;;14.63;96.51;101030.78;5077134;28;20126;-70
2021/08/20 06:32:58;;;;;;;15.23;8.23;;;;;;;14.69;97.28;101035.44;5075031;28;20059;-71
2021/08/20 06:35:24;;;;;;;16.77;8.20;;;;;;;14.67;96.52;101032.91;5077247;28;20059;-70
2021/08/20 06:37:49;;;;;;;19.33;9.00;;;;;;;14.72;96.01;101027.81;5089948;28;20032;-69
2021/08/20 06:40:14;;;;;;;13.73;8.30;;;;;;;14.78;95.13;101029.78;5090552;28;20067;-70
2021/08/20 06:42:40;;;;;;;20.63;8.60;;;;;;;14.93;94.88;101026.28;5088307;28;20137;-70
2021/08/20 06:45:06;;;;;;;19.47;8.20;;;;;;;15.07;95.63;101020.06;5101011;28;20059;-70
2021/08/20 06:47:31;;;;;;;17.58;8.13;;;;;;;15.40;94.37;101023.22;5094208;28;20047;-70
2021/08/20 06:49:58;;;;;;;18.90;8.23;;;;;;;15.69;91.41;101026.88;5089744;28;20035;-70
2021/08/20 06:52:24;;;;;;;14.32;7.50;;;;;;;15.95;90.45;101029.06;5098397;28;20066;-71
2021/08/20 06:54:49;;;;;;;14.50;7.25;;;;;;;16.29;88.42;101022.13;5070704;28;20027;-71
2021/08/20 06:57:14;;;;;;;18.97;7.90;;;;;;;16.18;87.30;101025.38;5084314;28;20055;-71
2021/08/20 06:59:39;;;;;;;13.47;7.27;;;;;;;16.10;87.90;101017.41;5085987;28;20449;-71
2021/08/20 07:02:05;;;;;;;17.03;9.13;;;;;;;15.47;89.63;101027.84;5107961;28;20040;-71
2021/08/20 07:04:30;;;;;;;13.90;7.47;;;;;;;15.63;91.35;101031.16;5108564;28;20038;-71
2021/08/20 07:06:56;;;;;;;14.13;7.93;;;;;;;15.59;91.40;101031.72;5099485;28;20048;-71
2021/08/20 07:09:22;;;;;;;17.43;7.30;;;;;;;15.86;90.26;101045.53;5090176;28;20286;-71
2021/08/20 07:11:48;;;;;;;15.82;7.85;;;;;;;15.40;91.19;101046.59;5088464;28;20047;-71
2021/08/20 07:14:13;;;;;;;19.67;8.80;;;;;;;15.47;91.47;101047.50;5086938;28;20028;-71
2021/08/20 07:16:38;;;;;;;18.27;9.17;;;;;;;15.49;89.89;101052.72;5085484;28;20039;-71
2021/08/20 07:19:04;;;;;;;20.37;9.37;;;;;;;15.39;91.45;101043.06;5089633;28;20303;-71
2021/08/20 07:21:29;;;;;;;14.67;7.70;;;;;;;15.42;90.91;101052.63;5088803;28;20062;-71
2021/08/20 07:23:54;;;;;;;16.80;8.97;;;;;;;15.37;91.43;101055.03;5089162;28;20224;-71
2021/08/20 07:26:20;;;;;;;18.57;8.93;;;;;;;15.33;91.91;101042.97;5084391;28;20085;-71
2021/08/20 07:28:45;;;;;;;18.07;8.87;;;;;;;15.44;91.35;101053.28;5065489;28;20248;-71
2021/08/20 07:31:11;;;;;;;18.30;8.47;;;;;;;15.37;91.78;101052.34;5065374;28;20409;-71
2021/08/20 07:33:36;;;;;;;17.57;8.77;;;;;;;15.20;92.98;101057.91;5065717;28;20036;-70
2021/08/20 07:36:01;;;;;;;19.07;9.10;;;;;;;15.30;92.67;101059.50;5048219;28;20086;-71
2021/08/20 07:38:27;;;;;;;19.15;8.60;;;;;;;15.43;92.20;101058.81;5086120;28;20043;-71
2021/08/20 07:40:52;;;;;;;14.73;8.60;;;;;;;15.58;90.47;101052.41;5086880;28;20036;-71
2021/08/20 07:43:18;;;;;;;15.83;8.93;;;;;;;15.46;90.77;101053.91;5088342;28;20028;-71
2021/08/20 07:45:43;;;;;;;16.13;7.73;;;;;;;15.82;90.71;101058.53;5088839;28;20052;-70
2021/08/20 07:48:09;;;;;;;13.32;7.35;;;;;;;16.16;89.49;101062.44;5071572;28;20035;-71
2021/08/20 07:50:35;;;;;;;11.93;7.47;;;;;;;16.18;87.27;101057.69;5069057;28;21014;-71
2021/08/20 07:53:00;;;;;;;10.65;6.43;;;;;;;16.25;87.25;101058.59;5069071;28;20090;-71
2021/08/20 07:55:26;;;;;;;10.70;6.83;;;;;;;16.40;86.95;101066.59;5068788;28;20458;-71
2021/08/20 07:57:53;;;;;;;18.50;8.70;;;;;;;16.10;85.87;101071.25;5083015;28;20028;-71
2021/08/20 08:00:24;;;;;;;14.98;7.47;;;;;;;15.87;87.21;101066.84;5087425;28;20059;-70
2021/08/20 08:02:50;;;;;;;15.50;7.85;;;;;;;15.81;87.91;101068.47;5087687;28;20855;-70
2021/08/20 08:05:16;;;;;;;9.55;6.30;;;;;;;15.81;85.93;101073.03;5087953;28;20060;-71
2021/08/20 08:07:41;;;;;;;9.30;6.03;;;;;;;15.73;85.90;101073.13;5073175;28;20446;-71
2021/08/20 08:10:08;;;;;;;11.10;5.93;;;;;;;15.50;86.37;101076.75;5067528;28;20603;-71
2021/08/20 08:12:34;;;;;;;8.88;6.03;;;;;;;15.77;86.74;101074.41;5049939;28;20047;-71
2021/08/20 08:14:59;;;;;;;;;;;;;;;15.77;86.39;101080.63;5068013;28;20499;-71
2021/08/20 08:17:24;;;;;;;;;;;;;;;15.69;85.67;101079.88;5078733;28;20053;-71
2021/08/20 08:19:50;;;;;;;13.97;4.17;;;;;;;15.72;85.97;101083.06;5088111;28;20380;-71
2021/08/20 08:22:15;;;;;;;7.47;4.47;;;;;;;15.75;85.83;101079.16;5087621;28;20032;-71
2021/08/20 08:24:40;;;;;;;6.73;5.27;;;;;;;15.71;86.64;101086.78;5088685;28;20048;-71
2021/08/20 08:27:06;;;;;;;7.77;4.53;;;;;;;15.73;85.54;101087.44;5080555;28;20043;-70
2021/08/20 08:29:31;;;;;;;6.73;4.23;;;;;;;15.51;88.10;101091.84;5067178;28;20028;-70
2021/08/20 08:31:57;;;;;;;9.40;5.07;;;;;;;15.46;90.85;101086.22;5068290;28;20477;-71
2021/08/20 08:34:22;;;;;;;7.13;3.00;;;;;;;15.47;86.69;101087.88;5066636;28;20402;-71
2021/08/20 08:36:47;;;;;;;5.90;3.67;;;;;;;15.70;84.95;101097.69;5067924;28;20041;-71
2021/08/20 08:39:13;;;;;;;6.00;2.90;;;;;;;16.15;83.36;101101.97;5082131;28;20060;-71
2021/08/20 08:41:38;;;;;;;4.87;2.47;;;;;;;16.48;81.21;101092.56;5085691;28;20028;-70
2021/08/20 08:44:04;;;;;;;4.40;2.37;;;;;;;16.55;80.10;101098.84;5085658;28;20036;-71
2021/08/20 08:46:36;;;;;;;5.40;2.50;;;;;;;16.28;81.03;101106.69;5085117;28;20120;-71
2021/08/20 08:49:03;;;;;;;7.20;2.78;;;;;;;15.79;84.54;101101.97;5086244;28;20188;-71
2021/08/20 08:51:28;;;;;;;5.32;3.45;;;;;;;15.47;86.47;101095.94;5084731;28;20020;-71
2021/08/20 08:53:53;;;;;;;3.67;2.73;;;;;;;15.50;86.43;101092.88;5086912;28;20536;-71
2021/08/20 08:56:20;;;;;;;5.10;2.93;;;;;;;15.14;89.59;101098.16;5087130;28;20460;-71
2021/08/20 08:58:45;;;;;;;;;;;;;;;15.28;89.08;101096.50;5067528;28;20040;-71
2021/08/20 09:01:27;;;;;;;;;;;;;;;15.57;88.04;101099.19;5074152;28;20501;-71
2021/08/20 09:04:05;;;;;;;6.40;3.58;;;;;;;15.78;87.13;101101.16;5087140;28;19968;-71
2021/08/20 09:06:42;;;;;;;6.72;3.03;;;;;;;16.15;86.02;101101.97;5085793;28;20040;-71
2021/08/20 09:09:09;;;;;;;6.78;2.97;;;;;;;16.27;84.79;101110.38;5088054;28;20377;-71
2021/08/20 09:11:35;;;;;;;6.53;2.90;;;;;;;16.42;83.06;101113.88;5070181;28;20130;-70
2021/08/20 09:14:00;;;;;;;3.55;2.70;;;;;;;15.93;84.71;101106.50;5086426;28;20147;-71
2021/08/20 09:16:38;;;;;;;4.47;2.88;;;;;;;15.88;85.52;101102.72;5083991;28;20040;-70
2021/08/20 09:19:20;;;;;;;10.32;3.60;;;;;;;16.12;83.59;101107.75;5085771;28;20165;-71
2021/08/20 09:21:48;;;;;;;4.70;3.05;;;;;;;16.42;83.06;101113.06;5085374;28;20036;-70
2021/08/20 09:24:30;;;;;;;4.72;3.28;;;;;;;16.70;81.48;101110.41;5086099;28;20024;-71
2021/08/20 09:27:17;;;;;;;5.03;2.70;;;;;;;17.01;79.91;101110.06;5084653;28;20028;-70
2021/08/20 09:29:56;;;;;;;4.93;3.28;;;;;;;17.15;80.91;101113.69;5086075;28;20055;-70
2021/08/20 09:32:24;;;;;;;8.73;3.40;;;;;;;17.24;79.85;101114.38;5086861;28;20381;-70
2021/08/20 09:34:54;;;;;;;8.45;4.40;;;;;;;17.02;79.77;101116.28;5087519;28;20533;-71
2021/08/20 09:37:20;;;;;;;8.55;4.00;;;;;;;17.33;80.43;101106.97;5079668;28;20074;-71
2021/08/20 09:39:47;;;;;;;7.15;4.38;;;;;;;17.33;79.04;101106.97;5066526;28;20063;-70
2021/08/20 09:42:16;;;;;;;11.77;6.50;;;;;;;17.10;80.21;101102.66;5049823;28;20070;-70
2021/08/20 09:44:41;;;;;;;10.45;5.60;;;;;;;17.13;79.47;101107.66;5067076;28;20047;-71
2021/08/20 09:47:07;;;;;;;9.77;5.70;;;;;;;17.02;79.40;101102.78;5065423;28;20033;-71
2021/08/20 09:50:11;;;;;;;8.10;5.28;;;;;;;17.13;81.54;101113.06;5066027;28;20047;-71
2021/08/20 09:52:36;;;;;;;10.85;5.15;;;;;;;17.10;81.09;101105.38;5043370;28;20057;-71
2021/08/20 09:55:02;;;;;;;13.27;6.00;;;;;;;17.09;81.99;101109.06;5043792;28;20505;-71
2021/08/20 09:57:28;;;;;;;10.15;5.30;;;;;;;17.34;80.52;101105.94;5041758;28;20049;-70
2021/08/20 09:59:57;;;;;;;13.68;6.07;;;;;;;17.48;80.53;101107.66;5048416;28;20094;-70
2021/08/20 10:02:28;;;;;;;9.35;5.10;;;;;;;17.81;78.95;101098.94;5065614;28;20127;-70
2021/08/20 10:04:58;;;;;;;8.63;5.22;;;;;;;17.59;79.63;101109.81;5065931;28;20119;-71
2021/08/20 10:07:27;;;;;;;9.25;5.30;;;;;;;17.58;78.88;101099.19;5052663;28;20037;-71
2021/08/20 10:09:54;;;;;;;8.02;5.35;;;;;;;17.67;79.57;101098.00;5053459;28;20056;-71
2021/08/20 10:12:22;;;;;;;9.57;4.88;;;;;;;17.81;78.68;101097.06;5070646;28;20036;-70
2021/08/20 10:14:49;;;;;;;8.73;4.72;;;;;;;17.65;78.82;101094.66;5053055;28;20450;-70
2021/08/20 10:17:16;;;;;;;7.50;4.30;;;;;;;17.68;77.41;101103.22;5070352;28;20098;-70
2021/08/20 10:19:42;;;;;;;9.50;4.15;;;;;;;17.56;79.13;101099.41;5071022;28;20040;-70
2021/08/20 10:22:08;;;;;;;12.27;4.28;;;;;;;17.84;77.19;101106.63;5070659;28;20016;-70
2021/08/20 10:24:34;;;;;;;;;;;;;;;17.90;75.98;101100.41;5071084;28;20458;-70
2021/08/20 10:27:02;;;;;;;;;;;;;;;17.81;77.51;101102.47;5070921;28;19975;-70
2021/08/20 10:29:30;;;;;;;7.32;4.68;;;;;;;17.50;77.20;101101.03;5069398;28;19909;-70
2021/08/20 10:31:57;;;;;;;9.95;5.00;;;;;;;17.61;77.99;101101.53;5069808;28;20123;-70
2021/08/20 10:34:36;;;;;;;7.57;4.85;;;;;;;17.52;76.90;101103.53;5070210;28;20079;-70
2021/08/20 10:37:10;;;;;;;7.88;4.47;;;;;;;17.79;76.66;101100.97;5069144;28;20409;-69
2021/08/20 10:39:39;;;;;;;7.10;4.13;;;;;;;17.94;77.31;101104.38;5052481;28;20496;-70
2021/08/20 10:42:09;;;;;;;6.82;4.03;;;;;;;17.80;77.04;101102.66;5068761;28;20672;-70
2021/08/20 10:44:42;;;;;;;6.65;4.00;;;;;;;17.92;76.74;101101.06;5068529;28;20033;-71
2021/08/20 10:47:09;;;;;;;10.20;4.68;;;;;;;17.87;76.47;101100.84;5068534;28;20065;-71
2021/08/20 10:49:45;;;;;;;8.27;4.30;;;;;;;17.97;76.04;101090.47;5070193;28;20036;-71
2021/08/20 10:52:26;;;;;;;5.93;3.95;;;;;;;17.93;75.51;101091.91;5052386;28;20058;-71
2021/08/20 10:54:54;;;;;;;6.95;4.80;;;;;;;18.23;76.78;101096.97;5069086;28;20047;-70
2021/08/20 10:57:35;;;;;;;7.68;3.78;;;;;;;17.97;74.79;101093.16;5068640;28;20165;-71
2021/08/20 11:00:02;;;;;;;9.48;4.22;;;;;;;18.13;75.95;101092.81;5069264;28;20598;-71
2021/08/20 11:02:27;;;;;;;7.30;4.03;;;;;;;18.13;75.12;101106.31;5051819;28;20039;-71
2021/08/20 11:05:01;;;;;;;5.10;3.80;;;;;;;18.33;74.18;101105.53;5069794;28;20036;-71
2021/08/20 11:07:39;;;;;;;6.22;4.68;;;;;;;18.45;74.05;101103.91;5069071;28;20044;-71
2021/08/20 11:10:10;;;;;;;10.38;5.40;;;;;;;18.17;73.98;101100.50;5070128;28;20044;-71
2021/08/20 11:12:48;;;;;;;8.15;4.75;;;;;;;18.16;74.57;101104.25;5069315;28;20458;-71
2021/08/20 11:15:22;;;;;;;6.15;4.82;;;;;;;18.32;73.98;101102.00;5069659;28;20032;-71
2021/08/20 11:17:52;;;;;;;9.57;4.97;;;;;;;18.03;74.52;101100.47;5068920;28;20040;-71
2021/08/20 11:20:26;;;;;;;7.47;4.93;;;;;;;18.22;74.42;101101.56;5068943;28;20178;-71
2021/08/20 11:23:12;;;;;;;13.18;6.10;;;;;;;18.67;74.05;101098.28;5069433;28;20032;-71
2021/08/20 11:25:49;;;;;;;9.23;6.10;;;;;;;18.71;72.59;101097.69;5082352;28;20032;-70
2021/08/20 11:28:18;;;;;;;10.57;5.45;;;;;;;18.70;72.58;101100.56;5089273;28;20594;-70